createdAt,value
2022-08-28T00:02:21.411Z,14.55
2022-08-28T00:07:23.911Z,17.10
2022-08-28T00:12:27.249Z,16.48
2022-08-28T00:17:29.679Z,16.50
2022-08-28T00:22:32.193Z,16.85
2022-08-28T00:27:52.609Z,14.77
2022-08-28T00:32:58.380Z,15.25
2022-08-28T00:38:00.961Z,15.60
2022-08-28T00:43:06.231Z,16.27
2022-08-28T00:48:08.770Z,14.52
2022-08-28T00:53:11.407Z,16.02
2022-08-28T00:58:14.481Z,14.38
2022-08-28T01:03:17.095Z,15.82
2022-08-28T01:08:19.969Z,16.20
2022-08-28T01:13:25.092Z,17.10
2022-08-28T01:18:28.122Z,16.70
2022-08-28T01:23:51.751Z,15.05
2022-08-28T01:28:54.990Z,14.63
2022-08-28T01:33:59.312Z,14.85
2022-08-28T01:39:23.841Z,14.82
2022-08-28T01:44:27.907Z,15.70
2022-08-28T01:49:30.439Z,16.23
2022-08-28T01:54:32.908Z,16.23
2022-08-28T01:59:36.335Z,18.85
2022-08-28T02:04:38.819Z,27.15
2022-08-28T02:09:41.239Z,22.15
2022-08-28T02:14:43.657Z,17.38
2022-08-28T02:19:46.083Z,18.83
2022-08-28T02:24:48.510Z,20.02
2022-08-28T02:29:51.428Z,20.05
2022-08-28T02:34:54.786Z,20.88
2022-08-28T02:39:58.545Z,16.73
2022-08-28T02:45:01.614Z,18.73
2022-08-28T02:50:04.996Z,19.00
2022-08-28T02:55:09.284Z,18.05
2022-08-28T03:00:15.199Z,16.42
2022-08-28T03:05:21.091Z,15.85
2022-08-28T03:10:24.053Z,18.52
2022-08-28T03:15:26.462Z,17.10
2022-08-28T03:20:28.922Z,16.35
2022-08-28T03:25:31.368Z,18.00
2022-08-28T03:30:33.804Z,18.17
2022-08-28T03:35:37.718Z,18.55
2022-08-28T03:40:45.605Z,20.37
2022-08-28T03:46:02.798Z,20.10
2022-08-28T03:51:17.886Z,20.50
2022-08-28T03:56:24.822Z,20.03
2022-08-28T04:01:28.137Z,21.88
2022-08-28T04:06:30.853Z,22.80
2022-08-28T04:11:42.481Z,22.83
2022-08-28T04:16:45.128Z,20.65
2022-08-28T04:21:47.716Z,21.42
2022-08-28T04:26:50.683Z,22.40
2022-08-28T04:31:53.541Z,21.38
2022-08-28T04:36:56.054Z,23.65
2022-08-28T04:41:58.539Z,22.58
2022-08-28T04:47:01.447Z,23.52
2022-08-28T04:52:05.069Z,23.20
2022-08-28T04:57:07.622Z,23.07
2022-08-28T05:02:12.049Z,23.33
2022-08-28T05:07:14.910Z,23.33
2022-08-28T05:12:17.693Z,22.05
2022-08-28T05:17:20.159Z,20.67
2022-08-28T05:22:23.221Z,22.17
2022-08-28T05:27:25.755Z,21.90
2022-08-28T05:32:28.507Z,21.45
2022-08-28T05:37:30.952Z,21.90
2022-08-28T05:42:38.398Z,18.65
2022-08-28T05:47:41.681Z,21.55
2022-08-28T05:52:44.480Z,19.88
2022-08-28T05:57:46.910Z,21.42
2022-08-28T06:02:50.270Z,19.88
2022-08-28T06:07:53.100Z,18.85
2022-08-28T06:12:55.588Z,19.70
2022-08-28T06:17:58.735Z,18.13
2022-08-28T06:23:01.159Z,16.85
2022-08-28T06:28:03.966Z,17.17
2022-08-28T06:33:07.307Z,17.20
2022-08-28T06:38:10.753Z,19.60
2022-08-28T06:43:15.146Z,19.13
2022-08-28T06:48:20.248Z,22.35
2022-08-28T06:53:28.886Z,26.05
2022-08-28T06:58:32.085Z,21.05
2022-08-28T07:03:35.204Z,19.02
2022-08-28T07:08:38.875Z,23.00
2022-08-28T07:13:43.288Z,17.50
2022-08-28T07:18:48.657Z,23.35
2022-08-28T07:23:54.286Z,17.45
2022-08-28T07:28:57.801Z,21.80
2022-08-28T07:34:14.768Z,18.48
2022-08-28T07:39:17.291Z,17.48
2022-08-28T07:44:38.182Z,15.13
2022-08-28T07:49:43.589Z,14.52
2022-08-28T07:54:46.047Z,14.75
2022-08-28T07:59:49.730Z,14.15
2022-08-28T08:04:52.358Z,14.52
2022-08-28T08:09:54.756Z,14.35
2022-08-28T08:15:00.728Z,13.52
2022-08-28T08:20:04.091Z,13.52
2022-08-28T08:25:07.074Z,12.93
2022-08-28T08:30:10.641Z,12.73
2022-08-28T08:35:13.111Z,12.27
2022-08-28T08:40:19.263Z,13.20
2022-08-28T08:45:26.464Z,12.20
2022-08-28T08:50:32.389Z,13.25
2022-08-28T08:55:43.070Z,12.32
2022-08-28T09:01:09.700Z,11.70
2022-08-28T09:06:24.909Z,11.82
2022-08-28T09:11:43.024Z,11.50
2022-08-28T09:16:45.922Z,11.85
2022-08-28T09:21:50.221Z,11.77
2022-08-28T09:27:05.429Z,11.15
2022-08-28T09:32:32.637Z,11.80
2022-08-28T09:37:37.158Z,11.50
2022-08-28T09:42:58.113Z,11.50
2022-08-28T09:48:02.703Z,11.35
2022-08-28T09:53:14.374Z,11.10
2022-08-28T09:58:17.293Z,11.38
2022-08-28T10:03:30.794Z,10.40
2022-08-28T10:08:50.743Z,11.35
2022-08-28T10:14:26.349Z,12.88
2022-08-28T10:19:46.073Z,11.00
2022-08-28T10:25:12.600Z,10.60
2022-08-28T10:30:22.933Z,11.38
2022-08-28T10:35:57.950Z,11.80
2022-08-28T10:41:10.339Z,10.52
2022-08-28T10:46:16.914Z,11.18
2022-08-28T10:51:43.620Z,10.70
2022-08-28T10:56:56.615Z,10.60
2022-08-28T11:02:00.728Z,11.00
2022-08-28T11:07:11.387Z,12.02
2022-08-28T11:12:16.781Z,11.57
2022-08-28T11:17:22.349Z,15.73
2022-08-28T11:22:49.664Z,16.38
2022-08-28T11:28:12.321Z,13.63
2022-08-28T11:33:35.703Z,14.48
2022-08-28T11:38:40.879Z,14.70
2022-08-28T11:43:45.322Z,12.85
2022-08-28T11:48:50.840Z,55.15
2022-08-28T11:54:18.847Z,17.30
2022-08-28T11:59:36.247Z,14.60
2022-08-28T12:04:42.650Z,12.05
2022-08-28T12:09:47.764Z,13.57
2022-08-28T12:14:56.332Z,13.73
2022-08-28T12:20:29.594Z,15.00
2022-08-28T12:25:43.497Z,13.88
2022-08-28T12:30:58.403Z,14.25
2022-08-28T12:36:06.216Z,13.57
2022-08-28T12:41:17.193Z,11.88
2022-08-28T12:46:35.180Z,10.73
2022-08-28T12:51:38.150Z,9.35
2022-08-28T12:56:40.753Z,9.27
2022-08-28T13:01:44.851Z,8.00
2022-08-28T13:06:47.399Z,8.18
2022-08-28T13:11:51.478Z,7.55
2022-08-28T13:16:54.064Z,6.65
2022-08-28T13:22:09.866Z,6.80
2022-08-28T13:27:12.305Z,7.20
2022-08-28T13:32:18.069Z,7.53
2022-08-28T13:37:49.791Z,7.20
2022-08-28T13:43:00.215Z,6.43
2022-08-28T13:48:03.780Z,6.40
2022-08-28T13:53:11.425Z,6.63
2022-08-28T13:58:18.185Z,6.03
2022-08-28T14:03:36.641Z,5.68
2022-08-28T14:08:43.951Z,5.85
2022-08-28T14:13:55.390Z,6.72
2022-08-28T14:19:03.893Z,7.10
2022-08-28T14:24:07.998Z,7.13
2022-08-28T14:29:13.593Z,7.70
2022-08-28T14:34:19.709Z,7.53
2022-08-28T14:39:25.205Z,7.57
2022-08-28T14:44:27.695Z,7.90
2022-08-28T14:49:30.174Z,7.15
2022-08-28T14:54:32.712Z,8.23
2022-08-28T14:59:35.279Z,8.63
2022-08-28T15:04:38.260Z,8.10
2022-08-28T15:09:42.783Z,7.80
2022-08-28T15:14:54.630Z,7.57
2022-08-28T15:20:00.505Z,6.90
2022-08-28T15:25:03.581Z,6.63
2022-08-28T15:30:06.640Z,5.25
2022-08-28T15:35:09.472Z,5.60
2022-08-28T15:40:30.441Z,5.80
2022-08-28T15:45:37.568Z,5.95
2022-08-28T15:50:41.670Z,5.78
2022-08-28T15:55:45.732Z,5.22
2022-08-28T16:00:48.158Z,5.30
2022-08-28T16:05:50.762Z,5.15
2022-08-28T16:10:53.422Z,5.18
2022-08-28T16:15:55.965Z,4.38
2022-08-28T16:21:02.689Z,4.50
2022-08-28T16:26:08.557Z,4.63
2022-08-28T16:31:20.722Z,4.47
2022-08-28T16:36:25.274Z,4.93
2022-08-28T16:41:28.229Z,4.13
2022-08-28T16:46:31.712Z,3.40
2022-08-28T16:51:34.136Z,3.47
2022-08-28T16:56:36.730Z,4.30
2022-08-28T17:01:42.568Z,4.20
2022-08-28T17:06:45.664Z,5.47
2022-08-28T17:11:52.148Z,6.00
2022-08-28T17:16:54.840Z,6.63
2022-08-28T17:22:15.873Z,7.68
2022-08-28T17:27:22.620Z,8.57
2022-08-28T17:32:25.817Z,8.90
2022-08-28T17:37:28.504Z,9.00
2022-08-28T17:42:30.933Z,8.45
2022-08-28T17:47:33.491Z,8.02
2022-08-28T17:52:36.165Z,9.00
2022-08-28T17:57:39.219Z,6.93
2022-08-28T18:02:41.978Z,7.38
2022-08-28T18:07:44.686Z,7.43
2022-08-28T18:12:47.793Z,6.68
2022-08-28T18:17:50.602Z,6.95
2022-08-28T18:22:53.741Z,7.55
2022-08-28T18:27:56.285Z,7.00
2022-08-28T18:32:58.928Z,6.75
2022-08-28T18:38:01.686Z,7.18
2022-08-28T18:43:05.453Z,6.75
2022-08-28T18:48:10.712Z,6.65
2022-08-28T18:53:14.267Z,7.32
2022-08-28T18:58:17.384Z,7.13
2022-08-28T19:03:20.744Z,6.97
2022-08-28T19:08:25.116Z,6.97
2022-08-28T19:13:27.946Z,6.80
2022-08-28T19:18:31.643Z,7.68
2022-08-28T19:23:34.450Z,7.72
2022-08-28T19:28:37.167Z,7.47
2022-08-28T19:33:39.638Z,7.75
2022-08-28T19:38:42.584Z,8.15
2022-08-28T19:43:45.432Z,9.35
2022-08-28T19:48:49.881Z,7.60
2022-08-28T19:53:58.231Z,7.40
2022-08-28T19:59:02.993Z,8.35
2022-08-28T20:04:08.391Z,9.63
2022-08-28T20:09:13.066Z,9.30
2022-08-28T20:14:17.812Z,8.27
2022-08-28T20:19:21.314Z,9.13
2022-08-28T20:24:24.269Z,8.65
2022-08-28T20:29:29.412Z,8.15
2022-08-28T20:34:32.165Z,8.48
2022-08-28T20:39:37.052Z,10.35
2022-08-28T20:44:39.895Z,7.50
2022-08-28T20:49:42.393Z,8.50
2022-08-28T20:54:46.098Z,9.30
2022-08-28T20:59:50.628Z,9.73
2022-08-28T21:04:53.993Z,10.63
2022-08-28T21:10:05.939Z,10.93
2022-08-28T21:15:12.625Z,12.13
2022-08-28T21:20:16.178Z,15.15
2022-08-28T21:25:20.762Z,15.23
2022-08-28T21:30:23.458Z,15.38
2022-08-28T21:35:31.763Z,14.30
2022-08-28T21:40:35.733Z,14.73
2022-08-28T21:45:38.337Z,14.35
2022-08-28T21:50:43.011Z,13.70
2022-08-28T21:55:55.626Z,14.65
2022-08-28T22:00:58.423Z,13.27
2022-08-28T22:06:00.871Z,11.80
2022-08-28T22:11:04.099Z,12.20
2022-08-28T22:16:07.167Z,10.70
2022-08-28T22:21:33.116Z,9.30
2022-08-28T22:26:35.853Z,9.10
2022-08-28T22:31:43.918Z,9.43
2022-08-28T22:36:48.628Z,9.60
2022-08-28T22:41:51.317Z,9.40
2022-08-28T22:46:53.829Z,8.87
2022-08-28T22:51:56.268Z,9.37
2022-08-28T22:56:58.713Z,8.43
2022-08-28T23:02:01.529Z,8.10
2022-08-28T23:07:05.501Z,8.77
2022-08-28T23:12:08.712Z,8.52
2022-08-28T23:17:11.261Z,8.63
2022-08-28T23:22:14.740Z,8.40
2022-08-28T23:27:35.753Z,8.53
2022-08-28T23:32:39.476Z,8.37
2022-08-28T23:37:46.694Z,8.40
2022-08-28T23:42:52.588Z,7.87
2022-08-28T23:47:55.010Z,8.23
2022-08-28T23:52:58.747Z,7.20
2022-08-28T23:58:01.206Z,7.37
